Date,TemperatureHighF,TemperatureAvgF,TemperatureLowF,DewpointHighF,DewpointAvgF,DewpointLowF,HumidityHigh,HumidityAvg,HumidityLow,PressureMaxIn,PressureMinIn,WindSpeedMaxMPH,WindSpeedAvgMPH,GustSpeedMaxMPH,PrecipitationSumIn
2013-1-1,15,8,1,7,2,-2,85,77,66,30.31,30.21,7,2,13,0.00
2013-1-2,27,21,7,19,14,0,85,76,60,30.25,30.11,6,2,12,0.00
2013-1-3,25,22,15,20,17,11,84,82,79,30.25,30.10,10,6,21,0.00
2013-1-4,28,20,12,19,14,7,85,77,69,30.25,30.10,13,8,25,0.00
2013-1-5,38,28,13,33,24,10,97,85,70,30.27,29.91,7,3,19,0.11
2013-1-6,35,28,18,32,23,16,91,81,70,30.34,29.90,8,4,18,0.02
2013-1-7,39,28,16,28,21,12,91,74,56,30.33,30.08,8,4,21,0.00
2013-1-8,40,34,25,32,29,23,95,82,70,30.17,29.97,7,2,17,0.00
2013-1-9,41,36,30,32,27,22,83,71,56,30.49,29.93,15,8,37,0.00
2013-1-10,38,25,20,37,22,17,97,89,74,30.56,29.96,7,1,16,0.34
2013-1-11,50,42,38,48,42,37,100,99,89,29.96,29.65,7,2,17,0.15
2013-1-12,52,39,26,47,33,22,90,78,64,30.03,29.65,14,6,29,0.00
2013-1-13,26,19,13,22,13,6,88,79,71,30.25,29.92,11,5,24,0.00
2013-1-14,24,16,9,12,8,4,81,72,53,30.51,30.25,8,4,17,0.00
2013-1-15,31,21,11,18,14,9,93,73,50,30.49,30.15,6,2,12,0.00
2013-1-16,33,27,19,29,20,11,88,75,59,30.14,29.78,11,5,25,0.00
2013-1-17,29,19,10,22,9,3,95,67,50,30.47,30.10,8,3,19,0.00
2013-1-18,42,28,8,33,22,5,94,76,63,30.49,29.84,11,5,30,0.02
2013-1-19,44,38,14,35,29,2,85,72,37,29.91,29.64,20,7,45,0.00
2013-1-20,14,10,6,2,-1,-2,70,63,51,30.33,29.90,18,6,39,0.00
2013-1-21,8,2,-5,2,-8,-14,78,63,53,30.36,30.19,13,6,27,0.00
2013-1-22,5,-1,-7,-6,-10,-16,72,65,57,30.44,30.36,10,5,20,0.00
2013-1-23,17,10,1,12,3,-6,87,73,64,30.47,30.16,7,4,18,0.00
2013-1-24,16,10,1,9,1,-6,75,68,60,30.74,30.45,5,1,18,0.00
2013-1-25,23,19,15,18,14,7,89,78,59,30.45,30.00,6,3,16,0.00
2013-1-26,29,18,8,27,11,3,96,74,56,30.46,30.23,5,2,11,0.00
2013-1-27,34,29,24,32,25,15,97,84,66,30.43,29.95,8,4,19,0.06
2013-1-28,39,35,30,37,33,28,100,93,79,30.01,29.83,5,1,13,0.18
2013-1-29,59,45,36,57,45,35,100,98,94,29.89,29.51,7,2,15,1.20
2013-1-30,42,39,16,41,38,12,97,96,84,29.60,29.50,9,2,22,1.20
2013-1-31,16,11,3,12,6,-2,85,77,69,30.17,29.60,10,8,26,0.00
2013-2-1,6,2,-2,2,-4,-8,85,74,62,30.37,30.17,10,6,20,0.00
2013-2-2,14,8,4,7,2,-1,92,76,58,30.25,30.10,5,2,13,0.00
2013-2-3,17,12,5,10,6,-1,86,77,65,30.11,30.02,10,3,22,0.00
2013-2-4,20,13,6,12,7,1,90,78,56,30.11,30.01,5,1,11,0.00
2013-2-5,26,18,0,22,13,-3,90,82,71,30.13,29.84,8,2,17,0.00
2013-2-6,34,22,2,30,16,0,96,79,60,30.32,30.13,5,1,10,0.00
2013-2-7,35,32,23,34,30,22,100,93,87,30.19,29.97,5,1,14,0.03
2013-2-8,28,20,7,27,18,5,97,90,79,30.46,30.08,4,1,11,0.00
2013-2-9,29,20,4,25,17,2,96,89,82,30.48,30.17,4,1,12,0.00
2013-2-10,43,34,21,42,33,20,100,96,88,30.17,29.44,8,4,20,0.43
2013-2-11,41,33,28,38,28,21,90,82,74,30.00,29.44,15,9,37,0.00
2013-2-12,28,25,22,23,19,17,89,80,70,30.12,29.91,9,5,18,0.00
2013-2-13,39,31,22,30,26,20,94,81,68,29.92,29.74,5,2,13,0.00
2013-2-14,37,32,27,34,30,22,96,89,82,30.02,29.61,9,4,21,0.11
2013-2-15,27,20,13,22,11,5,88,70,54,30.24,30.02,7,3,17,0.00
2013-2-16,18,12,5,7,3,-2,83,67,50,30.26,30.20,7,3,15,0.00
2013-2-17,28,16,3,18,5,-3,85,62,41,30.30,30.07,5,2,11,0.00
2013-2-18,48,37,28,40,30,18,97,77,63,30.06,29.43,7,4,19,0.41
2013-2-19,33,16,9,32,11,1,96,81,68,30.17,29.48,15,10,32,0.00
2013-2-20,21,14,6,11,7,0,80,73,62,30.46,30.19,7,3,17,0.00
2013-2-21,27,20,14,25,16,8,92,85,74,30.50,30.19,7,3,15,0.00
2013-2-22,32,28,24,30,26,21,96,92,84,30.19,29.84,6,3,18,0.00
2013-2-23,30,26,21,25,22,17,89,82,71,29.96,29.87,8,4,15,0.00
2013-2-24,39,27,18,28,22,16,97,82,63,30.20,29.96,6,2,12,0.07
2013-2-25,38,27,14,33,23,12,100,86,65,30.24,30.12,5,1,10,0.01
2013-2-26,35,32,26,32,29,24,100,89,78,30.13,29.66,11,6,24,0.00
2013-2-27,33,32,29,33,31,29,100,99,94,29.78,29.62,8,6,20,0.01
2013-2-28,34,30,25,31,26,20,95,86,76,30.16,29.79,9,6,21,0.04
2013-3-1,25,24,20,21,19,15,86,82,75,30.29,30.14,8,5,19,0.00
2013-3-2,27,19,10,18,13,7,88,77,66,30.29,30.23,4,2,12,0.00
2013-3-3,29,16,6,16,8,2,89,73,48,30.23,30.16,3,1,9,0.00
2013-3-4,31,22,3,27,17,0,90,82,74,30.23,30.14,3,1,11,0.00
2013-3-5,32,30,28,27,25,22,92,81,67,30.14,29.96,8,4,22,0.00
2013-3-6,36,30,27,29,26,23,88,83,76,30.35,30.09,6,3,17,0.02
2013-3-7,35,27,16,32,21,14,97,78,66,30.51,30.34,4,1,9,0.00
2013-3-8,37,26,11,30,22,8,96,84,71,30.55,30.37,6,2,12,0.01
2013-3-9,39,34,28,38,31,26,100,88,83,30.37,29.88,8,4,19,0.14
2013-3-10,42,37,35,41,36,34,100,99,96,29.88,29.66,7,2,18,0.99
2013-3-11,36,34,30,36,34,27,100,97,88,29.76,29.54,8,2,21,0.04
2013-3-12,32,29,24,28,23,20,93,79,66,30.02,29.76,9,5,20,0.00
2013-3-13,32,24,19,22,14,9,88,67,40,30.35,30.02,8,4,18,0.00
2013-3-14,38,28,20,27,17,11,90,65,37,30.35,30.10,5,2,11,0.00
2013-3-15,37,31,28,32,28,25,94,88,77,30.14,29.89,5,3,14,0.04
2013-3-16,32,27,22,27,22,18,95,82,60,30.18,29.86,6,3,15,0.00
2013-3-17,25,22,20,18,15,13,76,74,72,30.23,30.19,3,2,9,0.00
2013-3-18,34,31,28,32,28,23,94,89,78,30.11,29.60,6,3,17,0.02
2013-3-19,29,20,14,14,10,8,82,66,48,30.07,29.72,17,10,38,0.00
2013-3-20,21,16,10,8,4,0,66,60,51,30.10,30.06,10,7,25,0.00
2013-3-21,29,20,11,16,10,4,76,67,54,30.11,30.06,7,3,17,0.00
2013-3-22,37,23,14,36,14,9,97,70,49,30.15,30.08,4,2,10,0.01
2013-3-23,37,28,16,27,21,13,90,76,57,30.22,30.12,5,1,11,0.00
2013-3-24,33,32,29,30,27,23,94,81,74,30.12,29.81,10,4,24,0.06
2013-3-25,35,31,28,28,25,22,88,78,66,30.14,29.83,9,5,21,0.00
2013-3-26,40,35,29,30,27,24,86,73,64,30.28,30.14,5,2,15,0.00
2013-3-27,43,37,31,27,24,19,79,59,40,30.34,30.28,6,2,15,0.00
2013-3-28,46,36,28,28,22,19,91,58,38,30.38,30.33,7,2,14,0.00
2013-3-29,46,37,29,29,23,21,83,59,40,30.37,30.28,5,1,10,0.00
2013-3-30,55,42,27,42,31,21,91,67,42,30.28,29.84,5,2,14,0.02
2013-3-31,49,40,32,42,34,21,95,80,56,29.92,29.71,12,6,23,0.00
2013-4-1,36,30,25,21,15,10,65,53,41,30.22,29.92,11,4,26,0.00
2013-4-2,39,31,24,18,16,12,72,54,34,30.36,30.22,9,4,21,0.00
2013-4-3,39,32,22,22,18,10,91,58,33,30.53,30.35,5,2,12,0.00
2013-4-4,57,43,29,36,25,8,64,49,38,30.35,29.98,10,4,23,0.00
2013-4-5,42,36,31,30,27,23,88,70,53,30.30,30.06,7,2,15,0.00
2013-4-6,55,42,33,50,36,24,89,79,66,30.23,29.56,10,4,25,0.07
2013-4-7,54,42,34,50,35,31,94,79,63,30.03,29.56,16,5,29,0.00
2013-4-8,46,39,33,44,37,31,97,94,88,30.05,29.68,6,1,16,0.80
2013-4-9,39,37,35,39,36,34,100,98,95,30.10,29.93,12,4,27,1.02
2013-4-10,37,35,33,37,34,32,100,97,91,30.11,29.94,9,6,23,1.23
2013-4-11,37,36,35,37,35,34,100,99,95,30.03,29.67,8,4,20,0.63
2013-4-12,40,36,34,38,35,32,100,95,85,29.82,29.57,7,2,15,0.14
2013-4-13,39,36,31,32,29,25,94,77,59,30.04,29.81,11,5,23,0.03
2013-4-14,44,36,28,41,33,26,100,90,85,30.08,29.72,5,2,19,0.01
2013-4-15,63,52,42,53,46,35,100,82,43,29.98,29.69,13,5,25,0.26
2013-4-16,53,42,34,40,34,30,95,77,53,30.35,29.96,8,2,17,0.00
2013-4-17,42,39,37,40,36,33,97,89,73,30.40,29.96,5,2,13,0.48
2013-4-18,51,43,40,49,42,35,100,98,79,29.97,29.40,11,2,27,0.98
2013-4-19,41,37,31,35,28,20,83,71,55,29.92,29.38,15,9,36,0.00
2013-4-20,43,33,26,26,20,14,85,61,32,30.49,29.92,8,4,18,0.00
2013-4-21,42,36,27,34,28,24,91,72,57,30.60,30.34,10,4,21,0.00
2013-4-22,55,47,36,42,36,31,96,67,45,30.35,30.08,10,3,20,0.00
2013-4-23,55,44,37,49,40,34,95,86,65,30.08,29.91,9,2,18,0.35
2013-4-24,52,43,33,34,27,22,82,57,31,30.07,29.97,9,3,22,0.00
2013-4-25,52,44,36,36,32,26,92,62,37,30.33,29.99,11,5,25,0.06
2013-4-26,69,53,38,48,39,29,74,60,41,30.36,30.18,11,4,24,0.00
2013-4-27,64,55,46,50,45,41,84,70,52,30.26,30.05,9,3,19,0.00
2013-4-28,64,54,47,50,45,41,94,75,52,30.05,29.84,5,1,10,0.00
2013-4-29,72,59,50,57,52,46,95,78,50,29.88,29.78,6,2,14,0.02
2013-4-30,88,70,48,61,55,46,97,64,28,29.90,29.73,10,4,26,0.00
2013-5-1,82,66,46,59,54,38,83,65,41,30.25,29.90,9,4,24,0.00
2013-5-2,56,46,38,46,39,35,95,79,64,30.30,30.20,10,5,23,0.60
2013-5-3,50,42,37,45,40,36,96,92,82,30.25,30.07,8,5,17,0.30
2013-5-4,69,54,43,51,45,40,92,73,44,30.11,30.05,5,1,13,0.00
2013-5-5,70,56,44,48,43,38,90,63,39,30.11,30.04,5,1,11,0.00
2013-5-6,76,59,47,46,40,32,74,54,21,30.11,30.01,4,1,8,0.00
2013-5-7,74,59,44,49,43,38,85,58,31,30.09,30.02,4,1,10,0.00
2013-5-8,76,60,44,52,44,40,91,60,28,30.07,29.99,5,1,10,0.00
2013-5-9,68,53,41,54,47,40,100,80,50,29.99,29.94,8,2,24,0.42
2013-5-10,46,42,38,43,40,37,100,97,88,30.03,29.89,9,5,26,0.92
2013-5-11,56,46,37,51,37,26,100,75,42,30.04,29.79,10,4,23,0.04
2013-5-12,52,42,36,36,30,25,89,62,36,30.18,30.04,7,4,19,0.00
2013-5-13,52,42,30,38,32,26,97,70,37,30.23,30.01,7,3,14,0.00
2013-5-14,79,62,45,58,48,35,88,63,45,30.00,29.54,7,3,17,0.00
2013-5-15,78,71,57,61,49,40,64,46,28,29.83,29.54,9,3,19,0.00
2013-5-16,74,63,56,51,42,30,66,47,35,30.03,29.83,5,2,14,0.00
2013-5-17,56,52,47,51,45,37,95,78,49,30.17,30.02,3,1,9,0.47
2013-5-18,70,58,50,58,50,46,87,74,58,30.13,29.99,4,1,10,0.00
2013-5-19,79,63,50,66,57,47,94,81,62,30.00,29.74,7,2,15,0.00
2013-5-20,86,74,60,68,60,57,94,66,38,29.77,29.67,8,2,21,0.02
2013-5-21,80,70,61,66,61,57,100,76,47,29.69,29.61,8,3,19,0.11
2013-5-22,63,57,52,60,56,52,100,96,85,29.79,29.65,4,1,11,1.26
2013-5-23,53,47,39,52,43,35,100,87,69,30.36,29.79,9,4,23,0.15
2013-5-24,54,45,36,43,36,32,95,71,51,30.50,30.36,4,1,11,0.00
2013-5-25,59,49,38,43,38,34,96,68,43,30.47,30.35,3,0,8,0.00
2013-5-26,62,51,38,48,42,36,93,72,53,30.37,30.23,3,0,9,0.00
2013-5-27,54,50,48,50,46,40,100,87,67,30.23,29.96,7,2,16,0.05
2013-5-28,74,55,48,68,53,47,100,96,74,29.95,29.75,3,0,9,0.41
2013-5-29,81,65,54,68,60,54,100,86,56,29.94,29.80,7,2,16,0.00
2013-5-30,84,71,61,69,64,60,96,82,60,29.91,29.75,6,2,17,0.17
2013-5-31,78,70,62,69,64,59,100,82,58,29.85,29.71,6,2,19,0.18
2013-6-1,80,70,60,68,63,58,100,81,57,29.71,29.60,5,2,16,0.24
2013-6-2,61,53,43,60,48,42,96,83,65,30.06,29.65,4,2,14,0.02
2013-6-3,69,56,39,53,44,39,100,70,41,30.13,30.05,5,2,12,0.00
2013-6-4,67,56,49,50,45,39,90,68,46,30.22,30.11,4,1,11,0.00
2013-6-5,62,54,50,53,48,45,95,81,56,30.18,30.02,2,0,13,0.06
2013-6-6,65,55,51,58,50,46,96,85,68,30.03,29.97,5,1,13,0.11
2013-6-7,71,60,51,53,47,40,92,64,37,30.02,29.93,4,1,12,0.01
2013-6-8,69,57,47,56,50,45,96,79,55,30.06,29.94,2,0,7,0.00
2013-6-9,70,60,49,62,56,48,97,86,73,30.06,29.87,4,1,12,0.00
2013-6-10,75,64,56,66,60,54,96,86,72,29.88,29.80,3,0,11,0.00
2013-6-11,82,69,56,66,62,55,100,80,55,29.92,29.81,4,1,10,0.00
2013-6-12,75,65,58,66,62,57,100,91,71,29.92,29.68,7,1,18,1.29
2013-6-13,58,57,56,57,56,54,97,94,90,29.79,29.74,2,1,6,0.00
2013-6-14,71,60,52,58,52,49,91,76,58,30.17,30.05,3,1,7,0.00
2013-6-15,71,61,52,67,58,49,100,88,76,30.08,29.83,4,1,12,1.59
2013-6-16,84,73,63,66,60,50,100,69,33,29.89,29.82,6,2,17,0.01
2013-6-17,82,66,57,68,58,52,92,75,51,30.01,29.87,6,1,16,0.00
2013-6-18,70,59,51,57,50,41,91,72,50,30.12,29.99,5,2,16,0.00
2013-6-19,70,59,46,51,46,42,97,64,40,30.19,30.11,5,2,12,0.00
2013-6-20,78,66,51,61,53,43,91,65,47,30.19,30.10,6,2,13,0.00
2013-6-21,79,69,60,70,64,55,100,85,71,30.13,29.92,7,1,17,0.72
2013-6-22,75,68,59,69,65,58,100,92,78,30.11,29.95,6,1,14,0.17
2013-6-23,90,76,62,76,68,61,100,78,57,30.02,29.87,5,2,17,0.00
2013-6-24,83,74,68,70,68,66,96,82,59,30.00,29.83,4,1,12,0.04
2013-6-25,82,70,65,72,68,64,100,91,70,29.95,29.81,4,1,12,0.92
2013-6-26,80,70,64,70,66,63,100,87,70,29.83,29.72,6,1,12,0.00
2013-6-27,86,72,62,74,67,61,100,86,60,29.78,29.67,4,1,17,0.44
2013-6-28,79,70,63,68,63,61,97,82,58,29.70,29.59,5,2,16,0.30
2013-6-29,74,66,62,63,60,55,96,81,59,29.84,29.62,7,4,19,0.01
2013-6-30,77,68,60,58,52,44,75,59,33,30.05,29.84,8,3,18,0.00
2013-7-1,80,68,57,57,52,46,80,58,36,30.13,30.05,6,2,15,0.00
2013-7-2,71,62,53,57,52,48,95,72,49,30.15,30.10,5,1,14,0.00
2013-7-3,64,61,59,63,59,56,100,94,81,30.10,30.05,4,1,11,1.18
2013-7-4,78,69,60,66,62,59,100,81,55,30.11,30.03,6,2,15,0.00
2013-7-5,86,74,64,70,63,58,91,70,49,30.08,30.00,6,2,17,0.00
2013-7-6,84,74,65,69,65,62,95,76,52,30.05,29.95,6,2,14,0.00
2013-7-7,89,78,66,76,70,65,97,78,56,29.99,29.91,3,1,9,0.00
2013-7-8,85,77,68,76,72,67,97,85,72,29.99,29.89,6,2,16,0.18
2013-7-9,84,71,63,76,69,63,100,92,76,30.00,29.80,4,1,15,0.13
2013-7-10,79,74,63,74,64,57,97,73,48,30.01,29.81,5,2,15,0.00
2013-7-11,78,66,57,64,57,54,94,76,49,30.12,30.01,4,0,10,0.00
2013-7-12,81,67,52,65,58,51,100,75,41,30.18,30.10,3,1,8,0.00
2013-7-13,82,70,55,68,61,54,100,75,51,30.19,30.11,5,1,14,0.00
2013-7-14,85,74,60,72,67,60,100,81,58,30.24,30.18,5,1,10,0.00
2013-7-15,88,77,66,76,71,64,100,83,65,30.28,30.23,3,0,7,0.00
2013-7-16,93,82,72,80,75,71,100,82,58,30.28,30.20,4,1,13,0.00
2013-7-17,96,84,76,78,75,73,94,76,52,30.27,30.14,4,1,13,0.00
2013-7-18,95,86,75,77,74,72,92,70,50,30.15,29.87,6,2,19,0.00
2013-7-19,92,85,75,76,72,64,78,65,52,29.87,29.69,7,4,21,0.00
2013-7-20,82,71,62,66,62,57,91,74,54,29.99,29.78,4,1,12,0.00
2013-7-21,76,67,61,66,61,54,100,82,69,30.01,29.90,4,1,11,0.75
2013-7-22,86,73,63,74,69,62,100,87,57,29.91,29.68,5,1,14,0.02
2013-7-23,75,69,57,72,59,54,92,72,54,30.01,29.67,6,2,16,0.01
2013-7-24,72,62,52,59,53,50,94,75,53,30.10,30.01,3,1,8,0.00
2013-7-25,77,66,53,64,58,50,93,76,52,30.10,29.97,5,2,13,0.00
2013-7-26,74,67,61,67,63,58,95,86,72,29.98,29.85,4,1,16,0.19
2013-7-27,61,57,54,57,51,46,93,79,63,29.93,29.86,4,2,16,0.00
2013-7-28,66,59,53,56,52,50,91,79,64,30.00,29.84,6,2,16,0.00
2013-7-29,71,62,55,60,55,51,96,80,62,30.21,30.00,4,1,11,0.00
2013-7-30,72,63,52,65,60,52,100,90,76,30.22,30.12,3,1,9,0.08
2013-7-31,76,66,61,69,64,60,100,95,75,30.12,29.94,4,0,12,0.48
2013-8-1,78,68,59,62,58,55,100,74,46,29.98,29.91,5,2,16,0.01
2013-8-2,81,70,60,68,61,56,100,76,49,29.95,29.84,5,1,16,0.36
2013-8-3,76,66,54,62,57,52,94,75,49,30.14,29.95,3,1,10,0.00
2013-8-4,72,63,55,61,57,54,97,82,62,30.25,30.14,3,1,8,0.00
2013-8-5,74,64,53,65,59,52,100,84,69,30.15,29.88,4,1,11,0.00
2013-8-6,84,74,63,70,66,61,100,80,57,29.88,29.78,4,1,14,0.00
2013-8-7,81,71,63,72,65,61,100,83,58,29.98,29.74,6,1,15,0.50
2013-8-8,76,67,59,63,57,48,100,73,39,30.08,29.98,3,1,9,0.00
2013-8-9,81,69,56,65,58,51,93,70,50,30.06,29.97,5,1,12,0.00
2013-8-10,76,65,55,65,59,54,100,82,60,30.16,30.06,2,0,5,0.00
2013-8-11,71,63,56,64,60,54,100,91,72,30.15,30.04,4,0,9,0.22
2013-8-12,78,68,59,70,64,54,100,89,72,30.05,29.89,6,1,14,0.06
2013-8-13,70,60,50,56,51,47,93,74,51,30.19,30.01,5,2,14,0.00
2013-8-14,70,59,47,54,50,45,94,74,50,30.25,30.16,3,1,10,0.00
2013-8-15,59,58,58,54,54,53,85,83,82,30.17,30.14,3,1,10,0.00
2013-8-17,80,66,53,64,58,52,100,77,47,30.27,30.19,3,1,10,0.00
2013-8-18,79,66,51,65,58,51,100,78,53,30.25,30.11,4,1,12,0.01
2013-8-19,84,72,59,65,61,55,89,71,49,30.12,30.02,4,1,13,0.00
2013-8-20,88,75,62,71,66,61,97,75,49,30.08,30.00,4,1,14,0.00
2013-8-21,90,80,68,72,68,65,92,70,54,30.03,29.89,7,2,23,0.00
2013-8-22,76,69,59,70,65,56,96,87,65,30.14,29.98,3,1,11,0.08
2013-8-23,78,68,54,65,60,53,100,78,51,30.22,30.14,3,0,9,0.01
2013-8-24,80,67,52,68,60,52,100,79,49,30.29,30.19,6,2,16,0.00
2013-8-25,92,79,68,70,65,58,82,63,40,30.21,30.07,7,3,21,0.00
2013-8-26,92,82,75,76,71,66,78,69,51,30.10,29.92,6,3,18,0.00
2013-8-27,96,83,72,76,74,70,96,74,51,29.94,29.76,7,2,19,0.09
2013-8-28,84,75,67,74,70,66,97,85,66,30.04,29.82,4,2,12,0.00
2013-8-29,86,75,65,74,69,64,100,83,64,30.09,29.98,4,0,9,0.00
2013-8-30,93,76,66,78,70,62,97,83,55,29.99,29.77,6,2,18,0.00
2013-8-31,80,69,62,69,65,61,97,87,68,29.88,29.81,3,0,9,0.00
2013-9-1,84,69,59,72,65,59,100,89,65,29.83,29.69,4,1,15,0.03
2013-9-2,68,64,55,62,58,51,97,81,65,30.02,29.82,5,1,13,0.00
2013-9-3,77,62,50,57,53,48,96,74,42,30.11,30.01,3,1,11,0.00
2013-9-4,82,67,56,67,60,53,93,79,55,30.16,30.03,4,1,14,0.00
2013-9-5,69,62,51,61,54,48,95,75,52,30.32,30.16,3,1,11,0.00
2013-9-6,81,66,48,68,58,47,100,78,49,30.26,29.99,4,1,11,0.00
2013-9-7,82,73,67,75,69,64,100,86,63,30.02,29.88,6,2,16,1.33
2013-9-8,72,67,64,66,64,61,96,89,78,30.09,29.98,5,1,15,0.01
2013-9-9,84,75,65,77,71,64,100,89,72,30.00,29.77,5,2,15,0.01
2013-9-10,94,85,78,74,68,65,74,58,40,29.91,29.78,7,3,17,0.00
2013-9-11,79,74,70,68,66,66,89,77,66,29.97,29.91,3,1,11,0.00
2013-9-12,73,65,56,66,59,47,100,83,62,30.14,29.96,4,1,13,0.01
2013-9-13,64,54,46,50,45,43,93,74,50,30.24,30.14,5,2,13,0.00
2013-9-14,72,61,43,52,48,42,97,65,42,30.21,30.03,4,1,11,0.00
2013-9-15,60,57,52,58,53,47,97,87,63,30.26,30.02,6,1,17,0.50
2013-9-16,62,52,44,50,45,41,94,79,63,30.43,30.27,5,2,15,0.00
2013-9-17,66,55,41,56,50,40,100,86,68,30.39,30.15,5,1,14,0.00
2013-9-18,75,66,58,67,62,55,96,86,74,30.15,29.91,3,1,12,0.08
2013-9-19,80,71,67,73,68,66,100,92,79,29.93,29.74,7,2,19,0.43
2013-9-20,73,66,58,68,62,54,100,89,70,29.80,29.69,5,2,13,0.09
2013-9-21,60,55,50,55,49,45,95,81,64,29.99,29.80,4,1,13,0.00
2013-9-22,61,51,42,49,44,39,96,79,58,30.12,29.99,3,1,9,0.00
2013-9-23,63,51,40,52,46,39,100,86,65,30.18,30.10,4,1,9,0.00
2013-9-24,67,56,47,58,52,46,100,88,68,30.12,30.01,3,0,12,0.01
2013-9-25,68,55,46,59,52,45,100,88,65,30.05,30.00,2,0,6,0.01
2013-9-26,71,57,46,62,52,45,100,87,58,30.14,30.03,4,1,11,0.01
2013-9-27,72,58,45,61,54,44,100,86,59,30.20,30.10,5,1,12,0.01
2013-9-28,75,65,52,67,60,51,100,86,67,30.11,29.86,7,3,20,0.26
2013-9-29,68,56,47,55,50,46,100,83,48,30.08,29.94,3,0,8,0.01
2013-9-30,70,57,44,56,50,43,100,80,47,30.03,29.86,5,1,12,0.01
2013-10-1,81,68,54,65,59,51,96,76,56,29.96,29.82,8,2,21,0.00
2013-10-2,74,60,48,56,48,36,97,67,25,30.13,29.96,3,0,7,0.00
2013-10-3,76,64,53,69,61,52,100,93,78,30.02,29.86,4,1,11,1.42
2013-10-4,63,60,58,62,60,58,100,99,99,30.07,29.89,4,0,12,0.15
2013-10-5,68,64,60,68,64,60,100,100,100,30.00,29.74,3,0,6,0.14
2013-10-6,64,56,47,64,50,42,100,81,47,29.75,29.68,5,2,16,0.08
2013-10-7,65,53,44,49,46,43,96,79,46,30.11,29.71,7,2,17,0.00
2013-10-8,44,42,42,42,42,41,97,97,95,30.13,30.12,0,0,0,0.00
2013-10-11,59,59,58,55,55,55,88,87,86,30.01,29.99,1,0,3,0.00
2013-10-12,68,60,48,64,54,42,96,83,61,30.17,29.94,4,1,13,0.14
2013-10-13,61,47,39,45,41,38,94,81,49,30.44,30.17,5,1,17,0.00
2013-10-14,60,48,36,50,42,35,100,83,59,30.47,30.20,5,1,13,0.00
2013-10-15,58,54,47,57,52,44,100,93,86,30.20,29.76,5,2,15,0.26
2013-10-16,55,50,46,50,48,44,97,91,81,29.94,29.79,4,1,12,0.03
2013-10-17,53,47,41,46,43,39,100,88,63,29.94,29.82,4,1,10,0.05
2013-10-18,52,45,40,45,40,38,96,83,73,29.95,29.83,7,2,18,0.00
2013-10-19,52,44,37,40,37,32,95,79,46,29.93,29.76,7,1,22,0.02
2013-10-20,49,42,32,46,40,31,100,91,74,29.90,29.74,4,1,14,0.09
2013-10-21,49,40,33,45,32,22,91,74,58,29.96,29.75,8,4,20,0.00
2013-10-22,47,38,29,34,29,24,84,71,54,29.99,29.93,4,2,13,0.00
2013-10-23,42,36,29,30,27,22,91,71,46,30.04,29.96,6,2,15,0.00
2013-10-24,44,38,32,30,28,26,80,69,54,30.31,30.03,6,2,16,0.00
2013-10-25,50,41,28,31,28,25,90,64,44,30.40,29.90,10,4,28,0.00
2013-10-26,51,47,40,38,32,28,79,58,44,30.08,29.78,12,5,30,0.00
2013-10-27,55,44,32,40,32,28,94,66,42,30.08,29.93,8,2,20,0.00
2013-10-28,44,41,36,37,33,29,85,74,64,30.47,30.06,6,2,18,0.00
2013-10-29,49,42,34,44,38,29,96,86,77,30.46,30.20,4,1,10,0.00
2013-10-30,53,47,35,52,46,34,100,98,90,30.20,29.78,7,1,14,0.00
2013-10-31,62,56,46,62,55,44,100,99,94,29.79,29.19,10,3,24,0.73
2013-11-1,47,44,42,44,42,40,96,92,87,29.75,29.27,10,4,26,0.05
2013-11-2,47,42,33,42,38,32,96,86,64,30.19,29.75,4,1,12,0.00
2013-11-3,42,31,29,41,31,28,100,97,96,30.34,30.19,0,0,1,0.01
2013-11-4,52,47,44,46,43,41,91,85,77,30.31,30.11,8,4,22,0.00
2013-11-5,54,50,48,51,47,46,100,89,80,30.29,29.92,5,2,15,0.05
2013-11-6,56,45,31,55,42,26,97,89,72,30.16,29.73,8,4,19,0.29
2013-11-7,41,34,28,32,29,26,91,80,65,30.26,30.16,6,2,17,0.00
2013-11-8,45,37,26,39,31,24,96,79,56,30.34,29.91,5,2,16,0.00
2013-11-9,53,47,41,42,37,27,78,68,57,30.05,29.77,15,7,34,0.01
2013-11-10,48,43,38,33,31,28,70,61,50,30.33,30.06,9,3,29,0.00
2013-11-11,43,33,24,36,26,15,95,75,63,30.57,30.08,7,3,17,0.09
2013-11-12,30,25,19,18,15,12,83,68,47,30.74,30.57,9,3,20,0.00
2013-11-13,42,33,19,21,17,14,81,54,34,30.60,30.07,13,6,28,0.00
2013-11-14,48,41,34,31,26,19,63,56,46,30.07,29.91,11,5,28,0.00
2013-11-15,56,46,39,44,34,30,97,63,51,29.96,29.90,6,2,14,0.00
2013-11-16,60,46,37,57,44,34,100,96,88,29.94,29.53,9,4,19,0.08
2013-11-17,62,52,42,62,50,35,100,93,75,29.61,29.03,17,5,41,0.93
2013-11-18,42,34,28,35,26,21,79,72,66,30.29,29.61,15,8,37,0.00
2013-11-19,37,30,20,33,26,18,97,84,70,30.43,30.29,3,1,7,0.00
2013-11-20,42,38,32,36,33,30,95,84,71,30.33,30.17,9,4,25,0.05
2013-11-21,47,41,36,46,39,35,100,92,83,30.27,30.16,3,0,7,0.00
2013-11-22,40,32,27,37,26,14,95,79,59,30.49,30.26,8,3,20,0.00
2013-11-23,27,19,12,17,8,2,77,63,48,30.76,30.42,8,5,23,0.00
2013-11-24,26,18,9,8,5,2,84,59,38,30.75,30.32,11,4,28,0.00
2013-11-25,30,27,22,26,20,6,92,76,46,30.32,30.06,9,5,25,0.00
2013-11-26,32,26,15,27,18,5,86,72,48,30.23,30.05,5,3,16,0.00
2013-11-27,28,19,10,18,12,6,90,74,56,30.31,30.21,5,2,15,0.00
2013-11-28,31,22,15,30,17,12,97,81,67,30.56,30.25,6,1,12,0.00
2013-11-29,32,19,10,26,15,8,95,84,72,30.69,30.43,4,1,10,0.00
2013-11-30,46,36,28,39,28,22,94,74,59,30.43,30.06,5,2,12,0.00
2013-12-1,40,33,27,32,29,25,95,83,64,30.17,30.04,4,1,9,0.00
2013-12-2,41,33,23,35,30,22,97,87,75,30.03,29.86,5,1,13,0.05
2013-12-3,39,37,34,38,37,32,100,99,94,29.86,29.76,5,2,15,0.31
2013-12-4,51,43,37,51,42,35,100,98,84,29.82,29.47,13,3,27,0.11
2013-12-5,39,25,16,35,18,8,89,74,64,30.30,29.58,15,9,31,0.00
2013-12-6,17,12,7,9,4,1,82,73,61,30.60,30.28,9,4,19,0.00
2013-12-7,15,7,1,3,0,-4,89,73,56,30.76,30.60,6,2,16,0.00
2013-12-8,28,17,4,27,14,0,97,86,69,30.70,29.98,5,1,11,0.00
2013-12-9,27,13,-2,26,8,-7,95,80,64,30.23,29.94,13,6,30,0.00
2013-12-10,18,8,-6,11,2,-10,84,75,66,30.33,29.99,15,6,28,0.00
2013-12-11,12,5,-5,8,-2,-11,89,71,57,30.60,30.32,8,3,20,0.00
2013-12-12,-4,-4,-4,-9,-10,-11,78,75,73,30.58,30.51,3,2,10,0.00
2013-12-14,26,24,19,24,21,17,93,90,83,30.27,29.97,3,2,10,0.00
2013-12-15,20,10,0,17,3,-7,91,73,61,30.18,29.94,12,6,23,0.00
2013-12-16,22,8,-4,12,2,-9,89,76,51,30.25,30.06,4,1,13,0.00
2013-12-17,34,24,13,27,20,10,92,83,67,30.09,29.94,9,5,23,0.00
2013-12-18,34,24,11,26,15,6,80,70,55,30.16,29.80,8,3,22,0.00
2013-12-19,33,29,24,30,26,21,97,88,79,30.06,29.83,4,2,15,0.00
2013-12-20,30,27,24,29,26,23,96,95,93,29.94,29.85,5,3,14,0.00
2013-12-21,32,28,25,31,27,24,97,95,89,29.94,29.75,6,2,16,0.00
2013-12-22,32,26,21,29,24,19,97,95,89,30.15,29.73,7,3,16,0.00
2013-12-23,23,16,6,20,13,3,94,89,82,30.43,30.15,8,4,18,0.00
2013-12-24,22,9,-3,14,4,-6,88,80,57,30.60,30.41,5,1,12,0.00
2013-12-25,23,19,13,20,16,10,91,88,82,30.40,30.11,5,2,13,0.00
2013-12-26,24,20,14,22,16,11,94,85,72,30.30,30.11,6,2,16,0.00
2013-12-27,38,27,9,31,23,6,97,84,73,30.33,30.02,9,2,19,0.08
2013-12-28,46,38,27,34,31,25,95,76,62,30.08,29.78,8,3,21,0.10
2013-12-29,42,21,0,32,15,-6,92,77,69,30.26,29.75,9,3,20,0.00
2013-12-30,4,-1,-9,-3,-8,-14,83,72,49,30.41,30.26,6,3,12,0.00
2013-12-31,8,5,1,2,-2,-8,81,75,65,30.47,30.26,9,4,16,0.00
2014-1-1,11,7,0,7,2,-9,84,79,66,30.47,30.37,5,3,14,0.00
2014-1-2,14,8,-2,9,3,-8,89,79,67,30.49,30.32,5,2,13,0.00